Observations for RENNES ST. JACQUES, France (LFRN)

LFRN 220730Z AUTO 15005KT CAVOK 13/10 Q1022 NOSIG   
LFRN 220700Z AUTO 16004KT CAVOK 12/10 Q1022 NOSIG   
LFRN 220630Z AUTO 16004KT CAVOK 12/09 Q1022 NOSIG   
LFRN 220600Z AUTO 14004KT CAVOK 11/09 Q1022 NOSIG   
LFRN 220530Z AUTO 15003KT 9999 ///TCU 11/09 Q1023 BECMG SCT045  
LFRN 220500Z AUTO 15003KT CAVOK 11/09 Q1023 NOSIG   
LFRN 220430Z AUTO 17003KT CAVOK 11/09 Q1023 NOSIG   
LFRN 220400Z AUTO 19001KT CAVOK 11/09 Q1023 NOSIG   
LFRN 220330Z AUTO 00000KT CAVOK 10/08 Q1023 NOSIG   
LFRN 220300Z AUTO 18001KT CAVOK 10/08 Q1023 NOSIG   
LFRN 220230Z AUTO 19003KT CAVOK 10/08 Q1023 NOSIG   
LFRN 220200Z AUTO 18003KT CAVOK 10/08 Q1023 NOSIG   
LFRN 220130Z AUTO VRB02KT CAVOK 11/08 Q1023 NOSIG   
LFRN 220100Z AUTO 00000KT CAVOK 10/08 Q1023 NOSIG   
LFRN 220030Z AUTO 18001KT CAVOK 11/08 Q1024 NOSIG   
LFRN 220000Z AUTO 23003KT CAVOK 11/08 Q1023 NOSIG   
LFRN 212330Z AUTO 23001KT CAVOK 12/08 Q1023 NOSIG   
LFRN 212300Z AUTO 22003KT CAVOK 12/08 Q1024 NOSIG   
LFRN 212230Z AUTO 26003KT CAVOK 12/08 Q1024 NOSIG   
LFRN 212200Z AUTO 24003KT CAVOK 12/08 Q1024 NOSIG   
LFRN 212130Z AUTO 23004KT 200V260 CAVOK 12/08 Q1023 NOSIG   
LFRN 212100Z AUTO 22003KT CAVOK 12/08 Q1023 NOSIG   
LFRN 212030Z AUTO 21003KT CAVOK 12/08 Q1023 NOSIG   
LFRN 212000Z AUTO 22003KT CAVOK 12/07 Q1023 TEMPO 28010KT   
LFRN 211930Z AUTO 23002KT CAVOK 13/07 Q1022 NOSIG   
LFRN 211900Z AUTO 24003KT CAVOK 14/07 Q1022 NOSIG   
LFRN 211830Z AUTO 25004KT CAVOK 14/07 Q1022 NOSIG   
LFRN 211800Z AUTO 27005KT CAVOK 14/06 Q1021 NOSIG   
LFRN 211730Z AUTO 28008KT CAVOK 16/06 Q1021 NOSIG   
LFRN 211700Z AUTO 27011KT CAVOK 17/05 Q1021 NOSIG   
LFRN 211630Z AUTO 29011KT CAVOK 17/06 Q1020 NOSIG   
LFRN 211600Z AUTO 28011KT 9999 FEW044 18/06 Q1020 NOSIG 
LFRN 211530Z AUTO 30009KT 9999 FEW045 18/08 Q1020 NOSIG 
LFRN 211500Z AUTO 29008KT 270V330 CAVOK 18/07 Q1020 NOSIG   
LFRN 211430Z AUTO 31007KT 280V340 CAVOK 17/08 Q1020 NOSIG   
LFRN 211400Z AUTO 31010KT CAVOK 17/07 Q1020 NOSIG   
LFRN 211330Z AUTO 28013KT 250V310 CAVOK 17/06 Q1019 NOSIG   
LFRN 211300Z AUTO 27010KT 240V300 CAVOK 18/07 Q1019 NOSIG   
LFRN 211230Z AUTO 27011KT 240V300 9999 FEW046 SCT054 18/07 Q1019 NOSIG  
LFRN 211200Z AUTO 27010KT 240V310 9999 FEW042 SCT054 18/07 Q1019 NOSIG  
LFRN 211130Z AUTO 29011KT 260V330 9999 SCT041 SCT240 17/07 Q1019 NOSIG  
LFRN 211100Z AUTO 29013KT 250V320 9999 SCT036 SCT043 BKN240 16/08 Q1018 NOSIG   
LFRN 211030Z AUTO 28011KT 250V310 9999 SCT033 BKN043 BKN240 16/09 Q1018 NOSIG   
LFRN 211000Z AUTO 29011KT 9999 SCT030 BKN039 15/09 Q1018 NOSIG  
LFRN 210930Z AUTO 29011KT 9999 FEW030 15/10 Q1017 NOSIG 
LFRN 210900Z AUTO 28011KT 9999 FEW024 SCT240 14/10 Q1016 NOSIG  
LFRN 210830Z AUTO 28010KT CAVOK 14/10 Q1016 NOSIG   
LFRN 210800Z AUTO 27010KT 9999 FEW044 13/10 Q1015 NOSIG 
LFRN 210730Z AUTO 27008KT 9999 FEW044 13/11 Q1015 NOSIG 
LFRN 210700Z AUTO 26007KT CAVOK 12/10 Q1014 NOSIG